createdAt,value
2018-10-11T00:00:41.319Z,11.80
2018-10-11T00:03:10.464Z,11.80
2018-10-11T00:05:39.639Z,11.80
2018-10-11T00:08:09.109Z,11.70
2018-10-11T00:10:38.506Z,11.80
2018-10-11T00:13:07.646Z,11.70
2018-10-11T00:15:36.830Z,11.70
2018-10-11T00:18:05.943Z,11.70
2018-10-11T00:20:35.076Z,11.60
2018-10-11T00:23:04.110Z,11.50
2018-10-11T00:25:33.302Z,11.50
2018-10-11T00:28:02.613Z,11.50
2018-10-11T00:30:31.803Z,11.40
2018-10-11T00:33:01.073Z,11.40
2018-10-11T00:35:30.226Z,11.40
2018-10-11T00:38:00.111Z,11.30
2018-10-11T00:40:29.491Z,11.30
2018-10-11T00:42:58.723Z,11.30
2018-10-11T00:45:27.850Z,11.20
2018-10-11T00:47:56.967Z,11.20
2018-10-11T00:50:26.343Z,11.20
2018-10-11T00:52:55.641Z,11.20
2018-10-11T00:55:24.949Z,11.10
2018-10-11T00:57:54.217Z,11.00
2018-10-11T01:00:23.543Z,11.00
2018-10-11T01:02:52.857Z,11.00
2018-10-11T01:05:22.027Z,11.00
2018-10-11T01:07:51.242Z,11.00
2018-10-11T01:10:20.345Z,11.00
2018-10-11T01:12:49.718Z,11.00
2018-10-11T01:15:19.288Z,11.10
2018-10-11T01:17:48.721Z,11.00
2018-10-11T01:20:17.919Z,11.00
2018-10-11T01:22:47.408Z,11.00
2018-10-11T01:25:16.778Z,11.10
2018-10-11T01:27:46.108Z,11.10
2018-10-11T01:30:15.232Z,11.10
2018-10-11T01:32:44.336Z,11.10
2018-10-11T01:35:13.618Z,11.10
2018-10-11T01:37:42.995Z,11.10
2018-10-11T01:40:12.286Z,11.20
2018-10-11T01:42:41.539Z,11.20
2018-10-11T01:45:11.331Z,11.20
2018-10-11T01:47:40.418Z,11.10
2018-10-11T01:50:09.550Z,11.00
2018-10-11T01:52:39.342Z,10.90
2018-10-11T01:55:08.664Z,10.90
2018-10-11T01:57:37.798Z,10.90
2018-10-11T02:00:07.031Z,10.90
2018-10-11T02:02:36.308Z,10.90
2018-10-11T02:05:05.441Z,10.90
2018-10-11T02:07:34.544Z,10.90
2018-10-11T02:10:03.821Z,10.90
2018-10-11T02:12:32.914Z,10.90
2018-10-11T02:15:02.032Z,10.90
2018-10-11T02:17:31.112Z,10.90
2018-10-11T02:20:00.216Z,10.80
2018-10-11T02:22:29.529Z,10.80
2018-10-11T02:24:58.655Z,10.90
2018-10-11T02:27:28.203Z,10.90
2018-10-11T02:29:57.343Z,10.90
2018-10-11T02:32:26.942Z,10.80
2018-10-11T02:34:56.209Z,10.80
2018-10-11T02:37:25.479Z,10.80
2018-10-11T02:39:55.012Z,10.70
2018-10-11T02:42:24.538Z,10.70
2018-10-11T02:44:53.644Z,10.80
2018-10-11T02:47:22.790Z,10.80
2018-10-11T02:49:52.080Z,10.80
2018-10-11T02:52:21.195Z,10.80
2018-10-11T02:54:50.294Z,10.90
2018-10-11T02:57:30.496Z,10.90
2018-10-11T02:59:59.814Z,10.90
2018-10-11T03:02:29.135Z,10.90
2018-10-11T03:04:58.436Z,10.90
2018-10-11T03:07:28.563Z,10.90
2018-10-11T03:09:58.649Z,10.90
2018-10-11T03:12:27.836Z,10.80
2018-10-11T03:14:57.082Z,10.80
2018-10-11T03:17:26.326Z,10.80
2018-10-11T03:19:55.517Z,10.80
2018-10-11T03:22:25.137Z,10.80
2018-10-11T03:24:54.711Z,10.80
2018-10-11T03:27:24.788Z,10.80
2018-10-11T03:29:53.949Z,10.70
2018-10-11T03:32:23.269Z,10.70
2018-10-11T03:34:53.100Z,10.70
2018-10-11T03:37:22.220Z,10.70
2018-10-11T03:39:51.474Z,10.70
2018-10-11T03:42:20.779Z,10.60
2018-10-11T03:44:52.655Z,10.60
2018-10-11T03:47:21.936Z,10.60
2018-10-11T03:49:51.264Z,10.60
2018-10-11T03:52:20.890Z,10.60
2018-10-11T03:54:50.507Z,10.50
2018-10-11T03:57:19.695Z,10.50
2018-10-11T03:59:48.871Z,10.50
2018-10-11T04:02:18.174Z,10.40
2018-10-11T04:04:47.382Z,10.40
2018-10-11T04:07:16.496Z,10.30
2018-10-11T04:09:45.590Z,10.30
2018-10-11T04:12:14.709Z,10.40
2018-10-11T04:14:44.074Z,10.40
2018-10-11T04:17:13.264Z,10.40
2018-10-11T04:19:42.351Z,10.30
2018-10-11T04:22:11.937Z,10.30
2018-10-11T04:24:41.190Z,10.30
2018-10-11T04:27:10.519Z,10.20
2018-10-11T04:29:39.559Z,10.20
2018-10-11T04:32:08.671Z,10.10
2018-10-11T04:34:37.727Z,10.10
2018-10-11T04:37:07.567Z,10.10
2018-10-11T04:39:36.865Z,10.10
2018-10-11T04:42:06.028Z,10.10
2018-10-11T04:44:35.951Z,10.10
2018-10-11T04:47:06.397Z,10.00
2018-10-11T04:49:35.998Z,10.00
2018-10-11T04:52:05.137Z,9.90
2018-10-11T04:54:34.451Z,9.80
2018-10-11T04:57:03.534Z,9.90
2018-10-11T04:59:32.656Z,9.80
2018-10-11T05:02:02.041Z,9.70
2018-10-11T05:04:31.394Z,9.70
2018-10-11T05:07:00.630Z,9.70
2018-10-11T05:09:29.736Z,9.70
2018-10-11T05:11:59.630Z,9.80
2018-10-11T05:14:28.829Z,9.80
2018-10-11T05:16:57.857Z,9.90
2018-10-11T05:19:27.452Z,9.90
2018-10-11T05:21:56.621Z,9.90
2018-10-11T05:24:25.689Z,9.80
2018-10-11T05:26:55.072Z,9.70
2018-10-11T05:29:24.712Z,9.70
2018-10-11T05:31:56.152Z,9.60
2018-10-11T05:34:25.281Z,9.50
2018-10-11T05:36:54.448Z,9.40
2018-10-11T05:39:23.637Z,9.40
2018-10-11T05:41:53.075Z,9.50
2018-10-11T05:44:22.215Z,9.50
2018-10-11T05:46:51.490Z,9.60
2018-10-11T05:49:20.772Z,9.70
2018-10-11T05:51:50.079Z,9.80
2018-10-11T05:54:19.396Z,9.90
2018-10-11T05:56:49.022Z,9.90
2018-10-11T05:59:18.266Z,9.90
2018-10-11T06:01:47.502Z,9.90
2018-10-11T06:04:16.900Z,9.80
2018-10-11T06:06:48.324Z,9.70
2018-10-11T06:09:17.528Z,9.70
2018-10-11T06:11:47.779Z,9.70
2018-10-11T06:14:17.134Z,9.70
2018-10-11T06:16:46.417Z,9.70
2018-10-11T06:19:16.023Z,9.70
2018-10-11T06:21:46.047Z,9.70
2018-10-11T06:24:15.907Z,9.70
2018-10-11T06:26:45.861Z,9.70
2018-10-11T06:29:15.200Z,9.70
2018-10-11T06:31:45.319Z,9.70
2018-10-11T06:34:14.594Z,9.70
2018-10-11T06:36:43.790Z,9.80
2018-10-11T06:39:13.274Z,9.80
2018-10-11T06:41:42.583Z,9.90
2018-10-11T06:44:11.791Z,9.90
2018-10-11T06:46:41.208Z,9.90
2018-10-11T06:49:10.738Z,10.00
2018-10-11T06:51:40.684Z,10.00
2018-10-11T06:54:09.998Z,10.00
2018-10-11T06:56:39.097Z,10.00
2018-10-11T06:59:11.180Z,10.10
2018-10-11T07:01:40.400Z,10.10
2018-10-11T07:04:09.608Z,10.10
2018-10-11T07:06:39.877Z,10.20
2018-10-11T07:09:10.574Z,10.30
2018-10-11T07:11:39.701Z,10.40
2018-10-11T07:14:08.853Z,10.40
2018-10-11T07:16:39.277Z,10.40
2018-10-11T07:19:08.522Z,10.50
2018-10-11T07:21:37.915Z,10.50
2018-10-11T07:24:07.065Z,10.60
2018-10-11T07:26:36.472Z,10.60
2018-10-11T07:29:05.674Z,10.70
2018-10-11T07:31:34.977Z,10.80
2018-10-11T07:34:04.343Z,10.80
2018-10-11T07:36:33.515Z,10.90
2018-10-11T07:39:03.050Z,10.90
2018-10-11T07:41:32.280Z,11.10
2018-10-11T07:44:02.529Z,11.20
2018-10-11T07:46:31.709Z,11.30
2018-10-11T07:49:00.874Z,11.40
2018-10-11T07:51:30.233Z,11.50
2018-10-11T07:54:01.104Z,11.60
2018-10-11T07:56:31.415Z,11.70
2018-10-11T07:59:01.051Z,11.90
2018-10-11T08:01:31.005Z,12.00
2018-10-11T08:04:01.271Z,12.10
2018-10-11T08:06:30.562Z,12.20
2018-10-11T08:08:59.622Z,12.30
2018-10-11T08:11:28.911Z,12.50
2018-10-11T08:13:58.077Z,12.60
2018-10-11T08:16:27.151Z,12.70
2018-10-11T08:18:56.399Z,12.80
2018-10-11T08:21:25.519Z,12.90
2018-10-11T08:23:55.079Z,13.10
2018-10-11T08:26:24.441Z,13.20
2018-10-11T08:28:53.141Z,13.30
2018-10-11T08:31:22.179Z,13.40
2018-10-11T08:33:51.202Z,13.60
2018-10-11T08:36:20.347Z,13.70
2018-10-11T08:38:49.858Z,13.90
2018-10-11T08:41:18.900Z,14.00
2018-10-11T08:43:47.934Z,14.10
2018-10-11T08:46:17.783Z,14.30
2018-10-11T08:48:46.887Z,14.40
2018-10-11T08:51:15.936Z,14.60
2018-10-11T08:53:45.003Z,14.70
2018-10-11T08:56:14.090Z,14.80
2018-10-11T08:58:43.459Z,14.90
2018-10-11T09:01:12.722Z,15.10
2018-10-11T09:03:42.054Z,15.20
2018-10-11T09:06:11.022Z,15.30
2018-10-11T09:08:40.093Z,15.40
2018-10-11T09:11:09.146Z,15.50
2018-10-11T09:13:38.243Z,15.70
2018-10-11T09:16:07.421Z,15.80
2018-10-11T09:18:36.579Z,15.90
2018-10-11T09:21:05.976Z,16.10
2018-10-11T09:23:35.042Z,16.10
2018-10-11T09:26:04.127Z,16.20
2018-10-11T09:28:33.231Z,16.30
2018-10-11T09:31:02.922Z,16.40
2018-10-11T09:33:32.232Z,16.50
2018-10-11T09:36:01.311Z,16.60
2018-10-11T09:38:30.415Z,16.70
2018-10-11T09:40:59.465Z,16.80
2018-10-11T09:43:28.551Z,16.90
2018-10-11T09:45:58.017Z,17.00
2018-10-11T09:48:27.211Z,17.10
2018-10-11T09:50:56.308Z,17.20
2018-10-11T09:53:25.526Z,17.30
2018-10-11T09:55:54.601Z,17.30
2018-10-11T09:58:23.641Z,17.40
2018-10-11T10:00:58.377Z,17.60
2018-10-11T10:03:27.454Z,17.70
2018-10-11T10:05:56.585Z,17.80
2018-10-11T10:08:25.645Z,17.90
2018-10-11T10:10:54.877Z,17.90
2018-10-11T10:13:24.090Z,18.00
2018-10-11T10:15:53.123Z,18.10
2018-10-11T10:18:22.203Z,18.20
2018-10-11T10:20:51.789Z,18.20
2018-10-11T10:23:20.808Z,18.30
2018-10-11T10:25:49.885Z,18.30
2018-10-11T10:28:18.988Z,18.40
2018-10-11T10:30:53.115Z,18.40
2018-10-11T10:33:23.400Z,18.50
2018-10-11T10:35:52.638Z,18.50
2018-10-11T10:38:22.567Z,18.60
2018-10-11T10:40:51.867Z,18.70
2018-10-11T10:43:21.198Z,18.70
2018-10-11T10:45:50.246Z,18.80
2018-10-11T10:48:19.309Z,18.80
2018-10-11T10:50:48.410Z,18.90
2018-10-11T10:53:17.528Z,18.90
2018-10-11T10:55:46.627Z,19.00
2018-10-11T10:58:15.662Z,19.00
2018-10-11T11:00:44.712Z,19.10
2018-10-11T11:03:13.821Z,19.20
2018-10-11T11:05:42.913Z,19.10
2018-10-11T11:08:11.973Z,19.10
2018-10-11T11:10:41.447Z,19.20
2018-10-11T11:13:10.461Z,19.20
2018-10-11T11:15:39.743Z,19.30
2018-10-11T11:18:08.831Z,19.40
2018-10-11T11:20:37.916Z,19.40
2018-10-11T11:23:07.182Z,19.40
2018-10-11T11:25:36.219Z,19.50
2018-10-11T11:28:05.328Z,19.50
2018-10-11T11:30:37.336Z,19.50
2018-10-11T11:33:06.441Z,19.60
2018-10-11T11:35:35.503Z,19.60
2018-10-11T11:38:04.607Z,19.60
2018-10-11T11:40:33.738Z,19.70
2018-10-11T11:43:02.989Z,19.70
2018-10-11T11:45:32.314Z,19.80
2018-10-11T11:48:01.425Z,19.80
2018-10-11T11:50:30.796Z,19.80
2018-10-11T11:52:59.981Z,19.90
2018-10-11T11:55:29.012Z,19.90
2018-10-11T11:57:58.074Z,20.00
2018-10-11T12:00:27.970Z,20.00
2018-10-11T12:02:58.970Z,20.10
2018-10-11T12:05:28.423Z,20.10
2018-10-11T12:07:57.582Z,20.20
2018-10-11T12:10:26.990Z,20.20
2018-10-11T12:12:59.232Z,20.30
2018-10-11T12:15:29.405Z,20.30
2018-10-11T12:17:59.492Z,20.30
2018-10-11T12:20:29.805Z,20.30
2018-10-11T12:22:59.906Z,20.40
2018-10-11T12:25:29.292Z,20.40
2018-10-11T12:27:58.392Z,20.50
2018-10-11T12:30:27.462Z,20.50
2018-10-11T12:32:56.534Z,20.50
2018-10-11T12:35:25.983Z,20.60
2018-10-11T12:37:55.102Z,20.60
2018-10-11T12:40:24.533Z,20.60
2018-10-11T12:42:53.517Z,20.60
2018-10-11T12:45:22.612Z,20.60
2018-10-11T12:47:51.687Z,20.60
2018-10-11T12:50:20.770Z,20.60
2018-10-11T12:52:50.131Z,20.70
2018-10-11T12:55:19.360Z,20.70
2018-10-11T12:57:48.417Z,20.70
2018-10-11T13:00:18.263Z,20.80
2018-10-11T13:02:47.381Z,20.80
2018-10-11T13:05:16.471Z,20.80
2018-10-11T13:07:45.558Z,20.90
2018-10-11T13:10:14.848Z,20.90
2018-10-11T13:12:44.114Z,21.00
2018-10-11T13:15:13.190Z,21.00
2018-10-11T13:17:43.838Z,20.90
2018-10-11T13:20:12.038Z,20.90
2018-10-11T13:22:41.756Z,20.90
2018-10-11T13:25:10.958Z,20.80
2018-10-11T13:27:40.490Z,20.70
2018-10-11T13:30:09.736Z,20.70
2018-10-11T13:32:38.793Z,20.80
2018-10-11T13:35:08.324Z,20.80
2018-10-11T13:37:37.361Z,20.90
2018-10-11T13:40:06.527Z,20.90
2018-10-11T13:42:35.569Z,21.00
2018-10-11T13:45:04.666Z,20.90
2018-10-11T13:47:36.457Z,20.90
2018-10-11T13:50:02.826Z,20.80
2018-10-11T13:52:31.895Z,20.70
2018-10-11T13:55:06.795Z,20.70
2018-10-11T13:57:31.372Z,20.70
2018-10-11T14:00:00.675Z,20.70
2018-10-11T14:02:29.734Z,20.70
2018-10-11T14:04:58.814Z,20.80
2018-10-11T14:07:27.879Z,20.80
2018-10-11T14:09:56.891Z,20.90
2018-10-11T14:12:25.943Z,20.90
2018-10-11T14:14:54.966Z,21.00
2018-10-11T14:17:24.010Z,21.00
2018-10-11T14:19:53.054Z,20.90
2018-10-11T14:22:22.090Z,20.90
2018-10-11T14:24:51.100Z,20.90
2018-10-11T14:27:20.159Z,20.90
2018-10-11T14:29:49.373Z,20.80
2018-10-11T14:32:18.510Z,20.70
2018-10-11T14:34:47.571Z,20.60
2018-10-11T14:37:16.842Z,20.60
2018-10-11T14:39:45.862Z,20.50
2018-10-11T14:42:14.983Z,20.40
2018-10-11T14:44:44.083Z,20.30
2018-10-11T14:47:13.143Z,20.10
2018-10-11T14:49:42.166Z,20.00
2018-10-11T14:52:11.226Z,19.80
2018-10-11T14:54:41.061Z,19.70
2018-10-11T14:57:10.095Z,19.60
2018-10-11T14:59:39.311Z,19.50
2018-10-11T15:02:08.380Z,19.40
2018-10-11T15:04:37.527Z,19.30
2018-10-11T15:07:07.346Z,19.20
2018-10-11T15:09:36.580Z,19.20
2018-10-11T15:12:05.683Z,19.10
2018-10-11T15:14:34.782Z,19.10
2018-10-11T15:17:03.871Z,19.10
2018-10-11T15:19:33.156Z,19.10
2018-10-11T15:22:02.349Z,19.00
2018-10-11T15:24:31.345Z,19.00
2018-10-11T15:27:00.502Z,19.00
2018-10-11T15:29:29.732Z,19.00
2018-10-11T15:31:58.805Z,19.00
2018-10-11T15:34:27.823Z,18.90
2018-10-11T15:36:57.232Z,18.90
2018-10-11T15:39:26.441Z,18.90
2018-10-11T15:41:55.618Z,18.90
2018-10-11T15:44:25.807Z,18.90
2018-10-11T15:46:55.234Z,18.80
2018-10-11T15:49:24.461Z,18.70
2018-10-11T15:51:53.539Z,18.70
2018-10-11T15:54:22.737Z,18.60
2018-10-11T15:56:51.910Z,18.50
2018-10-11T15:59:21.349Z,18.50
2018-10-11T16:01:50.713Z,18.40
2018-10-11T16:04:19.757Z,18.30
2018-10-11T16:06:49.253Z,18.30
2018-10-11T16:09:18.339Z,18.20
2018-10-11T16:11:47.675Z,18.10
2018-10-11T16:14:16.809Z,18.00
2018-10-11T16:16:45.817Z,17.90
2018-10-11T16:19:14.911Z,17.80
2018-10-11T16:21:44.142Z,17.80
2018-10-11T16:24:13.821Z,17.70
2018-10-11T16:26:42.973Z,17.60
2018-10-11T16:29:12.092Z,17.50
2018-10-11T16:31:41.112Z,17.50
2018-10-11T16:34:10.122Z,17.40
2018-10-11T16:36:39.275Z,17.30
2018-10-11T16:39:09.669Z,17.20
2018-10-11T16:41:38.724Z,17.10
2018-10-11T16:44:07.921Z,17.00
2018-10-11T16:46:38.134Z,17.00
2018-10-11T16:49:10.829Z,16.90
2018-10-11T16:51:40.340Z,16.80
2018-10-11T16:54:09.425Z,16.70
2018-10-11T16:56:38.661Z,16.70
2018-10-11T16:59:07.813Z,16.60
2018-10-11T17:01:39.270Z,16.60
2018-10-11T17:04:08.562Z,16.50
2018-10-11T17:06:37.882Z,16.50
2018-10-11T17:09:09.106Z,16.50
2018-10-11T17:11:38.195Z,16.50
2018-10-11T17:14:08.032Z,16.40
2018-10-11T17:16:37.147Z,16.40
2018-10-11T17:19:06.794Z,16.30
2018-10-11T17:21:35.925Z,16.40
2018-10-11T17:24:05.058Z,16.30
2018-10-11T17:26:38.022Z,16.30
2018-10-11T17:29:07.069Z,16.30
2018-10-11T17:31:36.210Z,16.30
2018-10-11T17:34:06.597Z,16.30
2018-10-11T17:36:36.269Z,16.30
2018-10-11T17:39:07.314Z,16.30
2018-10-11T17:41:36.386Z,16.30
2018-10-11T17:44:06.030Z,16.30
2018-10-11T17:46:36.357Z,16.20
2018-10-11T17:49:05.668Z,16.10
2018-10-11T17:51:34.986Z,16.10
2018-10-11T17:54:04.686Z,16.10
2018-10-11T17:56:34.078Z,16.10
2018-10-11T17:59:03.328Z,16.10
2018-10-11T18:01:32.413Z,16.00
2018-10-11T18:04:01.635Z,16.00
2018-10-11T18:06:31.132Z,16.00
2018-10-11T18:09:00.277Z,15.90
2018-10-11T18:11:30.263Z,15.90
2018-10-11T18:13:59.396Z,15.80
2018-10-11T18:16:28.779Z,15.80
2018-10-11T18:18:57.853Z,15.80
2018-10-11T18:21:28.479Z,15.80
2018-10-11T18:23:57.524Z,15.80
2018-10-11T18:26:26.757Z,15.80
2018-10-11T18:28:55.855Z,15.80
2018-10-11T18:31:24.926Z,15.80
2018-10-11T18:33:54.132Z,15.90
2018-10-11T18:36:23.223Z,15.90
2018-10-11T18:38:52.400Z,15.90
2018-10-11T18:41:21.776Z,16.00
2018-10-11T18:43:50.906Z,16.00
2018-10-11T18:46:20.013Z,16.00
2018-10-11T18:48:49.107Z,15.90
2018-10-11T18:51:18.928Z,15.90
2018-10-11T18:53:48.134Z,15.90
2018-10-11T18:56:17.720Z,15.90
2018-10-11T18:58:46.808Z,15.90
2018-10-11T19:01:15.837Z,15.90
2018-10-11T19:03:45.070Z,15.90
2018-10-11T19:06:14.740Z,15.80
2018-10-11T19:08:43.792Z,15.80
2018-10-11T19:11:13.002Z,15.80
2018-10-11T19:13:42.494Z,15.70
2018-10-11T19:16:12.175Z,15.60
2018-10-11T19:18:41.548Z,15.60
2018-10-11T19:21:10.777Z,15.50
2018-10-11T19:23:39.974Z,15.50
2018-10-11T19:26:09.219Z,15.40
2018-10-11T19:28:38.324Z,15.40
2018-10-11T19:31:07.349Z,15.30
2018-10-11T19:33:36.467Z,15.30
2018-10-11T19:36:05.549Z,15.40
2018-10-11T19:38:35.076Z,15.40
2018-10-11T19:41:04.282Z,15.40
2018-10-11T19:43:33.318Z,15.40
2018-10-11T19:46:02.518Z,15.50
2018-10-11T19:48:31.694Z,15.50
2018-10-11T19:51:01.030Z,15.60
2018-10-11T19:53:30.316Z,15.50
2018-10-11T19:56:00.215Z,15.40
2018-10-11T19:58:29.349Z,15.40
2018-10-11T20:00:58.488Z,15.30
2018-10-11T20:03:28.235Z,15.20
2018-10-11T20:05:57.561Z,15.20
2018-10-11T20:08:26.760Z,15.10
2018-10-11T20:10:56.076Z,15.00
2018-10-11T20:13:25.199Z,15.00
2018-10-11T20:15:54.264Z,14.90
2018-10-11T20:18:23.508Z,14.90
2018-10-11T20:20:52.773Z,14.90
2018-10-11T20:23:22.258Z,14.90
2018-10-11T20:25:52.469Z,14.90
2018-10-11T20:28:21.538Z,14.90
2018-10-11T20:30:50.682Z,15.00
2018-10-11T20:33:19.835Z,15.00
2018-10-11T20:35:48.960Z,15.00
2018-10-11T20:38:18.334Z,14.90
2018-10-11T20:40:47.441Z,14.80
2018-10-11T20:43:16.720Z,14.70
2018-10-11T20:45:45.848Z,14.70
2018-10-11T20:48:15.024Z,14.60
2018-10-11T20:50:44.262Z,14.50
2018-10-11T20:53:13.803Z,14.50
2018-10-11T20:55:43.667Z,14.40
2018-10-11T20:58:12.988Z,14.30
2018-10-11T21:00:42.394Z,14.30
2018-10-11T21:03:13.076Z,14.20
2018-10-11T21:05:42.235Z,14.10
2018-10-11T21:08:11.361Z,14.00
2018-10-11T21:10:40.966Z,13.90
2018-10-11T21:13:10.709Z,13.80
2018-10-11T21:15:41.063Z,13.80
2018-10-11T21:18:10.373Z,13.70
2018-10-11T21:20:40.024Z,13.70
2018-10-11T21:23:09.612Z,13.70
2018-10-11T21:25:40.230Z,13.70
2018-10-11T21:28:09.561Z,13.70
2018-10-11T21:30:41.098Z,13.70
2018-10-11T21:33:10.191Z,13.70
2018-10-11T21:35:41.348Z,13.70
2018-10-11T21:38:10.828Z,13.80
2018-10-11T21:40:39.989Z,13.80
2018-10-11T21:43:09.338Z,13.90
2018-10-11T21:45:38.721Z,13.90
2018-10-11T21:48:07.878Z,14.00
2018-10-11T21:50:37.091Z,14.00
2018-10-11T21:53:07.087Z,14.00
2018-10-11T21:55:37.305Z,14.00
2018-10-11T21:58:06.655Z,14.10
2018-10-11T22:00:41.217Z,14.00
2018-10-11T22:03:10.602Z,14.00
2018-10-11T22:05:40.431Z,13.90
2018-10-11T22:08:18.457Z,13.80
2018-10-11T22:10:48.058Z,13.80
2018-10-11T22:13:17.167Z,13.70
2018-10-11T22:15:46.310Z,13.60
2018-10-11T22:18:15.503Z,13.50
2018-10-11T22:20:44.757Z,13.40
2018-10-11T22:23:13.820Z,13.40
2018-10-11T22:25:43.421Z,13.40
2018-10-11T22:28:12.531Z,13.40
2018-10-11T22:30:41.694Z,13.40
2018-10-11T22:33:10.757Z,13.40
2018-10-11T22:35:39.845Z,13.40
2018-10-11T22:38:09.014Z,13.40
2018-10-11T22:40:38.271Z,13.30
2018-10-11T22:43:07.514Z,13.30
2018-10-11T22:45:36.601Z,13.20
2018-10-11T22:48:06.055Z,13.20
2018-10-11T22:50:35.174Z,13.10
2018-10-11T22:53:04.224Z,13.10
2018-10-11T22:55:33.702Z,13.00
2018-10-11T22:58:03.087Z,13.00
2018-10-11T23:03:10.287Z,12.80
2018-10-11T23:05:40.302Z,12.90
2018-10-11T23:08:09.856Z,12.90
2018-10-11T23:10:39.133Z,12.80
2018-10-11T23:13:08.252Z,12.80
2018-10-11T23:15:37.588Z,12.80
2018-10-11T23:18:06.826Z,12.80
2018-10-11T23:20:35.874Z,12.80
2018-10-11T23:23:04.982Z,12.80
2018-10-11T23:25:34.616Z,12.70
2018-10-11T23:28:04.545Z,12.70
2018-10-11T23:30:34.294Z,12.60
2018-10-11T23:33:03.801Z,12.60
2018-10-11T23:35:32.904Z,12.60
2018-10-11T23:38:02.090Z,12.50
2018-10-11T23:40:31.390Z,12.50
2018-10-11T23:43:00.455Z,12.40
2018-10-11T23:45:29.495Z,12.40
2018-10-11T23:47:59.372Z,12.30
2018-10-11T23:50:28.654Z,12.20
2018-10-11T23:52:57.718Z,12.20
2018-10-11T23:55:26.927Z,12.20
2018-10-11T23:57:56.099Z,12.10
